Brush Creek, California
Current Conditions -  °F | °C
As of 3:53 PM on Friday 24 Oct 2014 (Local Time) from KOVE Reporting Station
Clear Clear  
Wind Chill: 77°   Ceiling: Unl
Heat Index: 78°   Visibility: 10mi
Dew Point: 49°   Wind: 8mph
Humidity: 37%   Direction: 150°SSE
Pressure: 29.88"   Gusts: NA
Location:  39.7419°N, 121.306°W
Report Text: KOVE 242253Z AUTO 15007KT 10SM CLR 25/09 A2988 RMK AO2 SLP119 T02500094
Loading
Personal Weather Stations






























Interactive Weather Map
Tropical Storm Tracking
New forecast layout! Learn more

10-Day Weather Forecast

Advertisements
Track Severe Weather on mobile